sensor_id;sensor_type;location;lat;lon;timestamp;P1;durP1;ratioP1;P2;durP2;ratioP2
34373;SDS011;20637;55.770;37.592;2024-03-23T00:55:35;30.95;;;18.35;;
34373;SDS011;20637;55.770;37.592;2024-03-23T00:58:00;30.13;;;17.75;;
34373;SDS011;20637;55.770;37.592;2024-03-23T01:00:26;33.17;;;19.83;;
34373;SDS011;20637;55.770;37.592;2024-03-23T01:02:52;31.90;;;18.35;;
34373;SDS011;20637;55.770;37.592;2024-03-23T01:05:17;33.47;;;21.35;;
34373;SDS011;20637;55.770;37.592;2024-03-23T01:07:43;31.92;;;20.10;;
34373;SDS011;20637;55.770;37.592;2024-03-23T01:10:09;31.20;;;19.75;;
34373;SDS011;20637;55.770;37.592;2024-03-23T01:12:34;29.65;;;19.10;;
34373;SDS011;20637;55.770;37.592;2024-03-23T01:15:00;33.38;;;20.30;;
34373;SDS011;20637;55.770;37.592;2024-03-23T01:17:26;32.55;;;19.92;;
34373;SDS011;20637;55.770;37.592;2024-03-23T01:19:51;30.52;;;16.65;;
34373;SDS011;20637;55.770;37.592;2024-03-23T01:22:17;32.72;;;19.77;;
34373;SDS011;20637;55.770;37.592;2024-03-23T01:24:43;33.40;;;19.13;;
34373;SDS011;20637;55.770;37.592;2024-03-23T01:27:09;37.22;;;20.20;;
34373;SDS011;20637;55.770;37.592;2024-03-23T01:29:35;34.83;;;20.48;;
34373;SDS011;20637;55.770;37.592;2024-03-23T01:32:01;35.22;;;21.95;;
34373;SDS011;20637;55.770;37.592;2024-03-23T01:34:26;34.00;;;18.75;;
34373;SDS011;20637;55.770;37.592;2024-03-23T01:36:53;33.53;;;20.92;;
34373;SDS011;20637;55.770;37.592;2024-03-23T01:39:19;35.38;;;19.90;;
34373;SDS011;20637;55.770;37.592;2024-03-23T01:41:44;35.00;;;19.58;;
34373;SDS011;20637;55.770;37.592;2024-03-23T01:44:10;32.35;;;18.77;;
34373;SDS011;20637;55.770;37.592;2024-03-23T01:46:39;29.20;;;19.50;;
34373;SDS011;20637;55.770;37.592;2024-03-23T01:49:06;35.72;;;20.75;;
34373;SDS011;20637;55.770;37.592;2024-03-23T01:51:33;33.90;;;18.70;;
34373;SDS011;20637;55.770;37.592;2024-03-23T01:54:00;32.95;;;17.27;;
34373;SDS011;20637;55.770;37.592;2024-03-23T01:56:29;27.75;;;15.90;;
34373;SDS011;20637;55.770;37.592;2024-03-23T01:58:58;34.40;;;18.90;;
34373;SDS011;20637;55.770;37.592;2024-03-23T02:01:23;37.53;;;19.95;;
34373;SDS011;20637;55.770;37.592;2024-03-23T02:03:49;31.75;;;18.50;;
34373;SDS011;20637;55.770;37.592;2024-03-23T02:06:15;32.38;;;19.10;;
34373;SDS011;20637;55.770;37.592;2024-03-23T02:08:40;33.42;;;20.95;;
34373;SDS011;20637;55.770;37.592;2024-03-23T02:11:06;31.40;;;18.77;;
34373;SDS011;20637;55.770;37.592;2024-03-23T02:13:32;32.15;;;19.25;;
34373;SDS011;20637;55.770;37.592;2024-03-23T02:15:58;27.77;;;15.60;;
34373;SDS011;20637;55.770;37.592;2024-03-23T02:18:24;32.92;;;19.98;;
34373;SDS011;20637;55.770;37.592;2024-03-23T02:20:49;33.88;;;20.58;;
34373;SDS011;20637;55.770;37.592;2024-03-23T02:23:15;35.75;;;19.88;;
34373;SDS011;20637;55.770;37.592;2024-03-23T02:25:41;27.02;;;16.83;;
34373;SDS011;20637;55.770;37.592;2024-03-23T02:28:08;27.50;;;15.77;;
34373;SDS011;20637;55.770;37.592;2024-03-23T02:30:33;24.95;;;13.93;;
34373;SDS011;20637;55.770;37.592;2024-03-23T02:32:59;32.65;;;19.73;;
34373;SDS011;20637;55.770;37.592;2024-03-23T02:35:25;33.78;;;18.27;;
34373;SDS011;20637;55.770;37.592;2024-03-23T02:37:51;33.05;;;19.95;;
34373;SDS011;20637;55.770;37.592;2024-03-23T02:40:17;29.88;;;16.45;;
34373;SDS011;20637;55.770;37.592;2024-03-23T02:42:43;34.33;;;19.55;;
34373;SDS011;20637;55.770;37.592;2024-03-23T02:45:09;28.33;;;17.65;;
34373;SDS011;20637;55.770;37.592;2024-03-23T02:47:35;32.75;;;18.10;;
34373;SDS011;20637;55.770;37.592;2024-03-23T02:50:00;31.08;;;18.95;;
34373;SDS011;20637;55.770;37.592;2024-03-23T02:52:26;34.78;;;20.30;;
34373;SDS011;20637;55.770;37.592;2024-03-23T02:54:52;25.67;;;16.08;;
34373;SDS011;20637;55.770;37.592;2024-03-23T02:57:18;33.00;;;20.95;;
34373;SDS011;20637;55.770;37.592;2024-03-23T02:59:43;32.40;;;20.17;;
34373;SDS011;20637;55.770;37.592;2024-03-23T03:02:09;27.42;;;16.98;;
34373;SDS011;20637;55.770;37.592;2024-03-23T03:04:35;34.25;;;18.13;;
34373;SDS011;20637;55.770;37.592;2024-03-23T03:07:00;32.83;;;19.25;;
34373;SDS011;20637;55.770;37.592;2024-03-23T03:09:26;31.55;;;18.80;;
34373;SDS011;20637;55.770;37.592;2024-03-23T03:11:52;34.90;;;21.00;;
34373;SDS011;20637;55.770;37.592;2024-03-23T03:14:17;34.05;;;18.50;;
34373;SDS011;20637;55.770;37.592;2024-03-23T03:16:43;31.65;;;18.48;;
34373;SDS011;20637;55.770;37.592;2024-03-23T03:19:09;24.65;;;15.23;;
34373;SDS011;20637;55.770;37.592;2024-03-23T03:21:36;29.80;;;16.85;;
34373;SDS011;20637;55.770;37.592;2024-03-23T03:24:02;28.58;;;16.67;;
34373;SDS011;20637;55.770;37.592;2024-03-23T03:26:28;32.42;;;17.08;;
34373;SDS011;20637;55.770;37.592;2024-03-23T03:28:54;28.85;;;16.20;;
34373;SDS011;20637;55.770;37.592;2024-03-23T03:31:20;33.58;;;18.55;;
34373;SDS011;20637;55.770;37.592;2024-03-23T03:33:46;33.33;;;18.85;;
34373;SDS011;20637;55.770;37.592;2024-03-23T03:36:11;31.23;;;17.60;;
34373;SDS011;20637;55.770;37.592;2024-03-23T03:38:37;25.45;;;14.65;;
34373;SDS011;20637;55.770;37.592;2024-03-23T03:41:04;31.33;;;18.23;;
34373;SDS011;20637;55.770;37.592;2024-03-23T03:43:31;27.02;;;17.42;;
34373;SDS011;20637;55.770;37.592;2024-03-23T03:45:57;31.83;;;16.42;;
34373;SDS011;20637;55.770;37.592;2024-03-23T03:48:24;27.13;;;15.98;;
34373;SDS011;20637;55.770;37.592;2024-03-23T03:50:50;31.90;;;17.45;;
34373;SDS011;20637;55.770;37.592;2024-03-23T03:53:15;31.10;;;16.83;;
34373;SDS011;20637;55.770;37.592;2024-03-23T03:55:41;33.22;;;19.63;;
34373;SDS011;20637;55.770;37.592;2024-03-23T03:58:07;29.95;;;20.17;;
34373;SDS011;20637;55.770;37.592;2024-03-23T04:00:32;32.38;;;20.15;;
34373;SDS011;20637;55.770;37.592;2024-03-23T04:02:58;36.55;;;21.58;;
34373;SDS011;20637;55.770;37.592;2024-03-23T04:05:24;33.78;;;19.75;;
34373;SDS011;20637;55.770;37.592;2024-03-23T04:07:50;32.30;;;20.48;;
34373;SDS011;20637;55.770;37.592;2024-03-23T04:10:15;29.85;;;19.33;;
34373;SDS011;20637;55.770;37.592;2024-03-23T04:12:43;33.63;;;17.20;;
34373;SDS011;20637;55.770;37.592;2024-03-23T04:15:09;36.50;;;19.98;;
34373;SDS011;20637;55.770;37.592;2024-03-23T04:17:35;34.35;;;20.52;;
34373;SDS011;20637;55.770;37.592;2024-03-23T04:20:01;31.05;;;18.08;;
34373;SDS011;20637;55.770;37.592;2024-03-23T04:22:30;28.25;;;17.08;;
34373;SDS011;20637;55.770;37.592;2024-03-23T04:24:56;33.63;;;18.92;;
34373;SDS011;20637;55.770;37.592;2024-03-23T04:27:22;34.50;;;19.05;;
34373;SDS011;20637;55.770;37.592;2024-03-23T04:29:49;29.25;;;18.55;;
34373;SDS011;20637;55.770;37.592;2024-03-23T04:32:16;31.70;;;18.95;;
34373;SDS011;20637;55.770;37.592;2024-03-23T04:34:42;30.85;;;18.77;;
34373;SDS011;20637;55.770;37.592;2024-03-23T04:37:09;26.23;;;16.95;;
34373;SDS011;20637;55.770;37.592;2024-03-23T04:39:37;28.45;;;17.98;;
34373;SDS011;20637;55.770;37.592;2024-03-23T04:42:04;26.38;;;17.73;;
34373;SDS011;20637;55.770;37.592;2024-03-23T04:44:30;24.30;;;14.93;;
34373;SDS011;20637;55.770;37.592;2024-03-23T04:47:00;28.58;;;19.02;;
34373;SDS011;20637;55.770;37.592;2024-03-23T04:49:26;29.60;;;18.20;;
34373;SDS011;20637;55.770;37.592;2024-03-23T04:51:52;29.13;;;18.80;;
34373;SDS011;20637;55.770;37.592;2024-03-23T04:54:17;28.15;;;16.90;;
34373;SDS011;20637;55.770;37.592;2024-03-23T04:56:43;23.30;;;14.38;;
34373;SDS011;20637;55.770;37.592;2024-03-23T04:59:09;29.35;;;17.00;;
34373;SDS011;20637;55.770;37.592;2024-03-23T05:01:36;28.42;;;14.55;;
34373;SDS011;20637;55.770;37.592;2024-03-23T05:04:04;21.92;;;14.20;;
34373;SDS011;20637;55.770;37.592;2024-03-23T05:06:30;27.00;;;15.68;;
34373;SDS011;20637;55.770;37.592;2024-03-23T05:08:56;23.30;;;15.23;;
34373;SDS011;20637;55.770;37.592;2024-03-23T05:11:21;26.73;;;15.38;;
34373;SDS011;20637;55.770;37.592;2024-03-23T05:13:47;23.75;;;12.98;;
34373;SDS011;20637;55.770;37.592;2024-03-23T05:16:13;27.23;;;17.30;;
34373;SDS011;20637;55.770;37.592;2024-03-23T05:18:38;21.23;;;13.52;;
34373;SDS011;20637;55.770;37.592;2024-03-23T05:21:04;25.17;;;15.27;;
34373;SDS011;20637;55.770;37.592;2024-03-23T05:23:29;22.42;;;11.68;;
34373;SDS011;20637;55.770;37.592;2024-03-23T05:25:55;25.58;;;15.02;;
34373;SDS011;20637;55.770;37.592;2024-03-23T05:28:21;18.77;;;12.48;;
34373;SDS011;20637;55.770;37.592;2024-03-23T05:30:53;27.02;;;16.88;;
34373;SDS011;20637;55.770;37.592;2024-03-23T05:33:20;26.13;;;16.98;;
34373;SDS011;20637;55.770;37.592;2024-03-23T05:35:46;24.65;;;15.07;;
34373;SDS011;20637;55.770;37.592;2024-03-23T05:38:13;27.95;;;17.77;;
34373;SDS011;20637;55.770;37.592;2024-03-23T05:40:39;23.65;;;14.77;;
34373;SDS011;20637;55.770;37.592;2024-03-23T05:43:08;22.92;;;15.60;;
34373;SDS011;20637;55.770;37.592;2024-03-23T05:45:34;22.33;;;14.90;;
34373;SDS011;20637;55.770;37.592;2024-03-23T05:48:00;21.95;;;13.00;;
34373;SDS011;20637;55.770;37.592;2024-03-23T05:50:26;23.73;;;16.60;;
34373;SDS011;20637;55.770;37.592;2024-03-23T05:52:51;28.80;;;17.35;;
34373;SDS011;20637;55.770;37.592;2024-03-23T05:55:17;26.63;;;16.45;;
34373;SDS011;20637;55.770;37.592;2024-03-23T05:57:43;25.42;;;16.17;;
34373;SDS011;20637;55.770;37.592;2024-03-23T06:00:09;18.58;;;11.95;;
34373;SDS011;20637;55.770;37.592;2024-03-23T06:02:43;25.65;;;14.45;;
34373;SDS011;20637;55.770;37.592;2024-03-23T06:05:12;22.92;;;14.23;;
34373;SDS011;20637;55.770;37.592;2024-03-23T06:07:38;23.35;;;15.50;;
34373;SDS011;20637;55.770;37.592;2024-03-23T06:10:04;21.55;;;14.18;;
34373;SDS011;20637;55.770;37.592;2024-03-23T06:12:31;24.85;;;15.27;;
34373;SDS011;20637;55.770;37.592;2024-03-23T06:14:57;20.92;;;13.63;;
34373;SDS011;20637;55.770;37.592;2024-03-23T06:17:23;20.80;;;13.90;;
34373;SDS011;20637;55.770;37.592;2024-03-23T06:19:49;19.13;;;11.13;;
34373;SDS011;20637;55.770;37.592;2024-03-23T06:22:14;24.33;;;15.20;;
34373;SDS011;20637;55.770;37.592;2024-03-23T06:24:40;26.00;;;14.93;;
34373;SDS011;20637;55.770;37.592;2024-03-23T06:27:06;23.08;;;15.13;;
34373;SDS011;20637;55.770;37.592;2024-03-23T06:29:32;16.85;;;11.88;;
34373;SDS011;20637;55.770;37.592;2024-03-23T06:31:58;20.60;;;13.52;;
34373;SDS011;20637;55.770;37.592;2024-03-23T06:34:24;20.92;;;13.40;;
34373;SDS011;20637;55.770;37.592;2024-03-23T06:36:49;21.40;;;14.57;;
34373;SDS011;20637;55.770;37.592;2024-03-23T06:39:16;23.25;;;14.70;;
34373;SDS011;20637;55.770;37.592;2024-03-23T06:41:52;23.88;;;13.90;;
34373;SDS011;20637;55.770;37.592;2024-03-23T06:44:19;22.23;;;14.25;;
34373;SDS011;20637;55.770;37.592;2024-03-23T06:46:45;17.10;;;9.00;;
34373;SDS011;20637;55.770;37.592;2024-03-23T06:49:11;16.52;;;10.13;;
34373;SDS011;20637;55.770;37.592;2024-03-23T06:51:37;21.40;;;13.82;;
34373;SDS011;20637;55.770;37.592;2024-03-23T06:54:03;21.95;;;14.65;;
34373;SDS011;20637;55.770;37.592;2024-03-23T06:56:29;18.75;;;12.35;;
34373;SDS011;20637;55.770;37.592;2024-03-23T06:58:56;22.15;;;13.93;;
34373;SDS011;20637;55.770;37.592;2024-03-23T07:01:22;23.33;;;13.63;;
34373;SDS011;20637;55.770;37.592;2024-03-23T07:03:47;20.00;;;13.68;;
34373;SDS011;20637;55.770;37.592;2024-03-23T07:06:13;20.63;;;13.23;;
34373;SDS011;20637;55.770;37.592;2024-03-23T07:08:39;21.90;;;13.23;;
34373;SDS011;20637;55.770;37.592;2024-03-23T07:11:05;18.27;;;13.40;;
34373;SDS011;20637;55.770;37.592;2024-03-23T07:13:30;18.70;;;12.30;;
34373;SDS011;20637;55.770;37.592;2024-03-23T07:15:56;18.25;;;11.10;;
34373;SDS011;20637;55.770;37.592;2024-03-23T07:18:23;15.13;;;10.15;;
34373;SDS011;20637;55.770;37.592;2024-03-23T07:20:53;17.17;;;11.98;;
34373;SDS011;20637;55.770;37.592;2024-03-23T07:23:19;13.07;;;8.83;;
34373;SDS011;20637;55.770;37.592;2024-03-23T07:25:45;22.17;;;11.15;;
34373;SDS011;20637;55.770;37.592;2024-03-23T07:28:10;14.60;;;10.05;;
34373;SDS011;20637;55.770;37.592;2024-03-23T07:30:36;14.98;;;10.18;;
34373;SDS011;20637;55.770;37.592;2024-03-23T07:33:02;16.42;;;11.90;;
34373;SDS011;20637;55.770;37.592;2024-03-23T07:35:27;16.10;;;11.85;;
34373;SDS011;20637;55.770;37.592;2024-03-23T07:37:53;14.70;;;10.00;;
34373;SDS011;20637;55.770;37.592;2024-03-23T07:40:19;14.95;;;9.60;;
34373;SDS011;20637;55.770;37.592;2024-03-23T07:42:44;14.25;;;8.88;;
34373;SDS011;20637;55.770;37.592;2024-03-23T07:45:10;19.50;;;12.35;;
34373;SDS011;20637;55.770;37.592;2024-03-23T07:47:35;14.82;;;9.70;;
34373;SDS011;20637;55.770;37.592;2024-03-23T07:50:01;13.48;;;9.32;;
34373;SDS011;20637;55.770;37.592;2024-03-23T07:52:30;15.98;;;10.00;;
34373;SDS011;20637;55.770;37.592;2024-03-23T07:54:56;17.90;;;12.02;;
34373;SDS011;20637;55.770;37.592;2024-03-23T07:57:21;18.63;;;11.98;;
34373;SDS011;20637;55.770;37.592;2024-03-23T07:59:47;16.90;;;11.65;;
34373;SDS011;20637;55.770;37.592;2024-03-23T08:02:12;16.52;;;10.98;;
34373;SDS011;20637;55.770;37.592;2024-03-23T08:04:38;13.82;;;10.68;;
34373;SDS011;20637;55.770;37.592;2024-03-23T08:07:04;13.85;;;9.55;;
34373;SDS011;20637;55.770;37.592;2024-03-23T08:09:29;14.15;;;10.10;;
34373;SDS011;20637;55.770;37.592;2024-03-23T08:11:55;18.00;;;12.10;;
34373;SDS011;20637;55.770;37.592;2024-03-23T08:14:21;17.98;;;10.00;;
34373;SDS011;20637;55.770;37.592;2024-03-23T08:16:46;13.35;;;9.57;;
34373;SDS011;20637;55.770;37.592;2024-03-23T08:19:14;13.18;;;9.75;;
34373;SDS011;20637;55.770;37.592;2024-03-23T08:21:41;13.77;;;9.23;;
34373;SDS011;20637;55.770;37.592;2024-03-23T08:24:06;15.52;;;9.77;;
34373;SDS011;20637;55.770;37.592;2024-03-23T08:26:32;12.95;;;9.25;;
34373;SDS011;20637;55.770;37.592;2024-03-23T08:28:58;13.68;;;9.25;;
34373;SDS011;20637;55.770;37.592;2024-03-23T08:31:23;15.18;;;11.10;;
34373;SDS011;20637;55.770;37.592;2024-03-23T08:33:49;12.80;;;10.15;;
34373;SDS011;20637;55.770;37.592;2024-03-23T08:36:15;14.35;;;11.02;;
34373;SDS011;20637;55.770;37.592;2024-03-23T08:38:40;15.25;;;9.27;;
34373;SDS011;20637;55.770;37.592;2024-03-23T08:41:07;16.17;;;11.07;;
34373;SDS011;20637;55.770;37.592;2024-03-23T08:43:40;13.55;;;10.02;;
34373;SDS011;20637;55.770;37.592;2024-03-23T08:46:10;18.10;;;11.60;;
34373;SDS011;20637;55.770;37.592;2024-03-23T08:48:41;12.03;;;9.73;;
34373;SDS011;20637;55.770;37.592;2024-03-23T08:51:11;13.60;;;8.13;;
34373;SDS011;20637;55.770;37.592;2024-03-23T08:53:38;15.55;;;11.80;;
34373;SDS011;20637;55.770;37.592;2024-03-23T08:56:04;15.15;;;9.55;;
34373;SDS011;20637;55.770;37.592;2024-03-23T08:58:32;12.52;;;9.35;;
34373;SDS011;20637;55.770;37.592;2024-03-23T09:01:06;10.98;;;7.10;;
34373;SDS011;20637;55.770;37.592;2024-03-23T09:03:33;12.88;;;9.88;;
34373;SDS011;20637;55.770;37.592;2024-03-23T09:05:59;11.75;;;8.05;;
34373;SDS011;20637;55.770;37.592;2024-03-23T09:08:25;12.52;;;10.25;;
34373;SDS011;20637;55.770;37.592;2024-03-23T09:10:51;14.15;;;10.18;;
34373;SDS011;20637;55.770;37.592;2024-03-23T09:13:17;10.50;;;8.10;;
34373;SDS011;20637;55.770;37.592;2024-03-23T09:15:47;13.95;;;9.50;;
34373;SDS011;20637;55.770;37.592;2024-03-23T09:18:14;14.90;;;11.38;;
34373;SDS011;20637;55.770;37.592;2024-03-23T09:20:40;10.10;;;8.23;;
34373;SDS011;20637;55.770;37.592;2024-03-23T09:23:05;14.18;;;10.30;;
34373;SDS011;20637;55.770;37.592;2024-03-23T09:25:31;12.02;;;10.55;;
34373;SDS011;20637;55.770;37.592;2024-03-23T09:27:57;13.65;;;9.43;;
34373;SDS011;20637;55.770;37.592;2024-03-23T09:30:23;14.23;;;9.65;;
34373;SDS011;20637;55.770;37.592;2024-03-23T09:32:49;12.52;;;10.25;;
34373;SDS011;20637;55.770;37.592;2024-03-23T09:35:14;12.43;;;8.98;;
34373;SDS011;20637;55.770;37.592;2024-03-23T09:37:40;14.18;;;9.90;;
34373;SDS011;20637;55.770;37.592;2024-03-23T09:40:09;11.23;;;7.72;;
34373;SDS011;20637;55.770;37.592;2024-03-23T09:42:37;13.63;;;8.77;;
34373;SDS011;20637;55.770;37.592;2024-03-23T09:45:04;12.40;;;8.05;;
34373;SDS011;20637;55.770;37.592;2024-03-23T09:47:34;14.13;;;9.35;;
34373;SDS011;20637;55.770;37.592;2024-03-23T09:50:00;14.65;;;10.63;;
34373;SDS011;20637;55.770;37.592;2024-03-23T09:52:29;11.70;;;9.88;;
34373;SDS011;20637;55.770;37.592;2024-03-23T09:54:54;11.10;;;8.95;;
34373;SDS011;20637;55.770;37.592;2024-03-23T09:57:20;14.85;;;8.50;;
34373;SDS011;20637;55.770;37.592;2024-03-23T09:59:46;13.98;;;9.63;;
34373;SDS011;20637;55.770;37.592;2024-03-23T10:02:11;12.00;;;9.70;;
34373;SDS011;20637;55.770;37.592;2024-03-23T10:04:42;14.68;;;10.48;;
34373;SDS011;20637;55.770;37.592;2024-03-23T10:07:14;14.35;;;10.73;;
34373;SDS011;20637;55.770;37.592;2024-03-23T10:09:44;12.65;;;9.75;;
34373;SDS011;20637;55.770;37.592;2024-03-23T10:12:11;12.82;;;9.50;;
34373;SDS011;20637;55.770;37.592;2024-03-23T10:14:39;15.98;;;10.00;;
34373;SDS011;20637;55.770;37.592;2024-03-23T10:19:39;8.98;;;6.45;;
34373;SDS011;20637;55.770;37.592;2024-03-23T10:22:06;14.85;;;9.65;;
34373;SDS011;20637;55.770;37.592;2024-03-23T10:24:32;16.40;;;10.75;;
34373;SDS011;20637;55.770;37.592;2024-03-23T10:26:57;12.23;;;8.77;;
34373;SDS011;20637;55.770;37.592;2024-03-23T10:29:23;12.07;;;9.10;;
34373;SDS011;20637;55.770;37.592;2024-03-23T10:31:49;13.50;;;9.55;;
34373;SDS011;20637;55.770;37.592;2024-03-23T10:34:15;14.23;;;10.23;;
34373;SDS011;20637;55.770;37.592;2024-03-23T10:36:41;13.38;;;10.10;;
34373;SDS011;20637;55.770;37.592;2024-03-23T10:39:07;14.13;;;10.40;;
34373;SDS011;20637;55.770;37.592;2024-03-23T10:41:33;15.27;;;10.38;;
34373;SDS011;20637;55.770;37.592;2024-03-23T10:43:59;11.40;;;8.93;;
34373;SDS011;20637;55.770;37.592;2024-03-23T10:46:27;13.50;;;10.52;;
34373;SDS011;20637;55.770;37.592;2024-03-23T10:48:52;15.68;;;9.90;;
34373;SDS011;20637;55.770;37.592;2024-03-23T10:51:18;13.07;;;8.68;;
34373;SDS011;20637;55.770;37.592;2024-03-23T10:53:44;14.05;;;9.90;;
34373;SDS011;20637;55.770;37.592;2024-03-23T10:56:11;14.93;;;10.70;;
34373;SDS011;20637;55.770;37.592;2024-03-23T10:58:40;12.82;;;10.25;;
34373;SDS011;20637;55.770;37.592;2024-03-23T11:01:12;11.23;;;9.60;;
34373;SDS011;20637;55.770;37.592;2024-03-23T11:03:39;14.45;;;9.93;;
34373;SDS011;20637;55.770;37.592;2024-03-23T11:06:09;13.82;;;9.55;;
34373;SDS011;20637;55.770;37.592;2024-03-23T11:08:36;14.88;;;10.43;;
34373;SDS011;20637;55.770;37.592;2024-03-23T11:11:18;14.30;;;10.77;;
34373;SDS011;20637;55.770;37.592;2024-03-23T11:13:49;15.02;;;11.27;;
34373;SDS011;20637;55.770;37.592;2024-03-23T11:16:17;10.83;;;8.23;;
34373;SDS011;20637;55.770;37.592;2024-03-23T11:18:47;10.57;;;7.18;;
34373;SDS011;20637;55.770;37.592;2024-03-23T11:24:16;14.43;;;10.60;;
34373;SDS011;20637;55.770;37.592;2024-03-23T11:26:42;12.77;;;10.32;;
34373;SDS011;20637;55.770;37.592;2024-03-23T11:29:11;15.38;;;10.23;;
34373;SDS011;20637;55.770;37.592;2024-03-23T11:31:38;11.98;;;9.27;;
34373;SDS011;20637;55.770;37.592;2024-03-23T11:34:04;14.13;;;11.80;;
34373;SDS011;20637;55.770;37.592;2024-03-23T11:36:30;12.02;;;8.05;;
34373;SDS011;20637;55.770;37.592;2024-03-23T11:38:56;14.77;;;11.70;;
34373;SDS011;20637;55.770;37.592;2024-03-23T11:41:22;15.10;;;10.68;;
34373;SDS011;20637;55.770;37.592;2024-03-23T11:43:47;15.73;;;10.45;;
34373;SDS011;20637;55.770;37.592;2024-03-23T11:46:21;13.02;;;9.05;;
34373;SDS011;20637;55.770;37.592;2024-03-23T11:48:50;12.88;;;9.43;;
34373;SDS011;20637;55.770;37.592;2024-03-23T11:53:45;13.63;;;11.15;;
34373;SDS011;20637;55.770;37.592;2024-03-23T11:56:10;14.50;;;10.23;;
34373;SDS011;20637;55.770;37.592;2024-03-23T11:58:36;14.40;;;10.23;;
34373;SDS011;20637;55.770;37.592;2024-03-23T12:01:02;14.93;;;11.40;;
34373;SDS011;20637;55.770;37.592;2024-03-23T12:03:29;15.00;;;11.02;;
34373;SDS011;20637;55.770;37.592;2024-03-23T12:05:55;14.52;;;9.85;;
34373;SDS011;20637;55.770;37.592;2024-03-23T12:08:29;15.40;;;10.27;;
34373;SDS011;20637;55.770;37.592;2024-03-23T12:13:30;16.23;;;11.07;;
34373;SDS011;20637;55.770;37.592;2024-03-23T12:15:57;15.48;;;10.93;;
34373;SDS011;20637;55.770;37.592;2024-03-23T12:18:42;16.33;;;12.40;;
34373;SDS011;20637;55.770;37.592;2024-03-23T12:21:08;17.30;;;11.77;;
34373;SDS011;20637;55.770;37.592;2024-03-23T12:23:35;16.13;;;11.52;;
34373;SDS011;20637;55.770;37.592;2024-03-23T12:26:01;20.08;;;12.98;;
34373;SDS011;20637;55.770;37.592;2024-03-23T12:28:27;18.50;;;13.18;;
34373;SDS011;20637;55.770;37.592;2024-03-23T12:30:53;16.15;;;10.98;;
34373;SDS011;20637;55.770;37.592;2024-03-23T12:33:19;22.38;;;13.93;;
34373;SDS011;20637;55.770;37.592;2024-03-23T12:35:46;17.75;;;12.73;;
34373;SDS011;20637;55.770;37.592;2024-03-23T12:38:13;19.33;;;12.10;;
34373;SDS011;20637;55.770;37.592;2024-03-23T12:40:38;18.42;;;12.85;;
34373;SDS011;20637;55.770;37.592;2024-03-23T12:43:04;17.50;;;11.30;;
34373;SDS011;20637;55.770;37.592;2024-03-23T12:45:29;19.45;;;12.80;;
34373;SDS011;20637;55.770;37.592;2024-03-23T12:47:55;18.27;;;13.05;;
34373;SDS011;20637;55.770;37.592;2024-03-23T12:50:21;19.95;;;12.68;;
34373;SDS011;20637;55.770;37.592;2024-03-23T12:52:47;23.35;;;14.23;;
34373;SDS011;20637;55.770;37.592;2024-03-23T12:55:13;18.80;;;13.23;;
34373;SDS011;20637;55.770;37.592;2024-03-23T12:57:39;20.48;;;14.10;;
34373;SDS011;20637;55.770;37.592;2024-03-23T13:00:06;18.20;;;12.05;;
34373;SDS011;20637;55.770;37.592;2024-03-23T13:02:34;21.80;;;14.55;;
34373;SDS011;20637;55.770;37.592;2024-03-23T13:05:00;18.50;;;12.73;;
34373;SDS011;20637;55.770;37.592;2024-03-23T13:07:26;20.35;;;14.48;;
34373;SDS011;20637;55.770;37.592;2024-03-23T13:09:52;20.63;;;14.52;;
34373;SDS011;20637;55.770;37.592;2024-03-23T13:12:19;18.80;;;13.02;;
34373;SDS011;20637;55.770;37.592;2024-03-23T13:14:45;22.02;;;13.82;;
34373;SDS011;20637;55.770;37.592;2024-03-23T13:17:11;17.98;;;13.52;;
34373;SDS011;20637;55.770;37.592;2024-03-23T13:19:37;20.70;;;14.23;;
34373;SDS011;20637;55.770;37.592;2024-03-23T13:22:04;23.20;;;13.38;;
34373;SDS011;20637;55.770;37.592;2024-03-23T13:24:30;21.10;;;13.60;;
34373;SDS011;20637;55.770;37.592;2024-03-23T13:26:56;19.17;;;13.80;;
34373;SDS011;20637;55.770;37.592;2024-03-23T13:29:22;17.38;;;12.75;;
34373;SDS011;20637;55.770;37.592;2024-03-23T13:31:49;18.00;;;12.88;;
34373;SDS011;20637;55.770;37.592;2024-03-23T13:34:16;19.67;;;13.30;;
34373;SDS011;20637;55.770;37.592;2024-03-23T13:36:43;17.27;;;12.07;;
34373;SDS011;20637;55.770;37.592;2024-03-23T13:39:10;17.73;;;12.32;;
34373;SDS011;20637;55.770;37.592;2024-03-23T13:41:37;17.90;;;11.52;;
34373;SDS011;20637;55.770;37.592;2024-03-23T13:44:08;16.52;;;12.00;;
34373;SDS011;20637;55.770;37.592;2024-03-23T13:46:38;16.05;;;10.25;;
34373;SDS011;20637;55.770;37.592;2024-03-23T13:49:04;20.45;;;13.65;;
34373;SDS011;20637;55.770;37.592;2024-03-23T13:51:31;20.35;;;12.57;;
34373;SDS011;20637;55.770;37.592;2024-03-23T13:53:57;16.33;;;10.57;;
34373;SDS011;20637;55.770;37.592;2024-03-23T13:56:29;15.70;;;11.15;;
34373;SDS011;20637;55.770;37.592;2024-03-23T13:58:55;18.88;;;11.68;;
34373;SDS011;20637;55.770;37.592;2024-03-23T14:01:21;15.25;;;12.07;;
34373;SDS011;20637;55.770;37.592;2024-03-23T14:03:48;16.20;;;11.55;;
34373;SDS011;20637;55.770;37.592;2024-03-23T14:06:13;17.52;;;11.57;;
34373;SDS011;20637;55.770;37.592;2024-03-23T14:08:39;16.65;;;12.07;;
34373;SDS011;20637;55.770;37.592;2024-03-23T14:11:05;14.45;;;9.00;;
34373;SDS011;20637;55.770;37.592;2024-03-23T14:13:31;13.05;;;10.43;;
34373;SDS011;20637;55.770;37.592;2024-03-23T14:15:58;14.95;;;10.30;;
34373;SDS011;20637;55.770;37.592;2024-03-23T14:18:24;15.77;;;10.70;;
34373;SDS011;20637;55.770;37.592;2024-03-23T14:20:51;17.27;;;11.57;;
34373;SDS011;20637;55.770;37.592;2024-03-23T14:23:18;14.18;;;9.90;;
34373;SDS011;20637;55.770;37.592;2024-03-23T14:25:44;14.43;;;10.25;;
34373;SDS011;20637;55.770;37.592;2024-03-23T14:28:10;13.18;;;10.50;;
34373;SDS011;20637;55.770;37.592;2024-03-23T14:30:42;15.27;;;9.55;;
34373;SDS011;20637;55.770;37.592;2024-03-23T14:33:09;12.63;;;10.20;;
34373;SDS011;20637;55.770;37.592;2024-03-23T14:35:35;11.95;;;8.77;;
34373;SDS011;20637;55.770;37.592;2024-03-23T14:38:01;19.95;;;11.52;;
34373;SDS011;20637;55.770;37.592;2024-03-23T14:40:28;15.20;;;10.57;;
34373;SDS011;20637;55.770;37.592;2024-03-23T14:42:54;11.43;;;8.55;;
34373;SDS011;20637;55.770;37.592;2024-03-23T14:45:20;11.13;;;8.32;;
34373;SDS011;20637;55.770;37.592;2024-03-23T14:47:47;14.55;;;9.68;;
34373;SDS011;20637;55.770;37.592;2024-03-23T14:50:13;14.70;;;11.00;;
34373;SDS011;20637;55.770;37.592;2024-03-23T14:52:41;12.27;;;9.63;;
34373;SDS011;20637;55.770;37.592;2024-03-23T14:55:11;12.37;;;8.37;;
34373;SDS011;20637;55.770;37.592;2024-03-23T14:57:38;15.25;;;9.30;;
34373;SDS011;20637;55.770;37.592;2024-03-23T15:00:07;12.15;;;8.65;;
34373;SDS011;20637;55.770;37.592;2024-03-23T15:02:39;13.63;;;10.18;;
34373;SDS011;20637;55.770;37.592;2024-03-23T15:05:05;14.68;;;11.18;;
34373;SDS011;20637;55.770;37.592;2024-03-23T15:07:35;13.18;;;10.07;;
34373;SDS011;20637;55.770;37.592;2024-03-23T15:10:04;12.98;;;10.15;;
34373;SDS011;20637;55.770;37.592;2024-03-23T15:12:31;13.02;;;10.52;;